Fort Pike — WAA9418 — position and weather

sailwx.info

Track history (hours):
 
Tides and Currents Weather Stations Pressure Air Temp Water Temp Dewpoint Dewpoint Depression Visibility Wind Speed Wind Dir Waves Ship Positions

Fort Pike

Owner: Salisbury Towing Corporation, Chesapeak, VA. More information available from US FCC via Universal Licensing System and Coast Guard Vessel Documentation Center.

Last reported at 2017-Jun-29 02:00 UTC. Time now 2017-Jun-29 02:10 UTC.
Position N 36°50' W 076°17'.

Length 18 m; draft 2.5 m.

Type: Tug. MMSI: 366948310.

Date/timePositionNaut miles runAvg speedWind from/ knotsBaromVisibWave heightAir tempDewpointWater temp
2017-Jun-29 02:00N 36°50' W 076°17'0 0.0
2017-Jun-29 01:30N 36°50' W 076°17'0 0.0
2017-Jun-29 00:38N 36°50' W 076°17'0 0.0
2017-Jun-29 00:30N 36°50' W 076°17'0 0.0
2017-Jun-28 23:56N 36°50' W 076°17'0 0.0
2017-Jun-28 23:13N 36°50' W 076°17'0 0.0
2017-Jun-28 22:55N 36°50' W 076°17'0 0.0
2017-Jun-28 22:30N 36°50' W 076°17'0 0.0
2017-Jun-28 21:49N 36°50' W 076°17'0 0.0
2017-Jun-28 21:29N 36°50' W 076°17'0 0.0
2017-Jun-28 21:00N 36°50' W 076°17'0 0.0
2017-Jun-28 20:30N 36°50' W 076°17'0 0.0
2017-Jun-28 20:00N 36°50' W 076°17'0 0.0
2017-Jun-28 19:30N 36°50' W 076°17'0 0.0
2017-Jun-28 19:01N 36°50' W 076°17'0 0.0
2017-Jun-28 18:30N 36°50' W 076°17'0 0.0
2017-Jun-28 18:00N 36°50' W 076°17'0 0.0
2017-Jun-28 17:30N 36°50' W 076°17'0 0.0
2017-Jun-28 17:00N 36°50' W 076°17'0 0.0
2017-Jun-28 16:30N 36°50' W 076°17'0 0.0
2017-Jun-28 16:00N 36°50' W 076°17'0 0.0
2017-Jun-28 15:30N 36°50' W 076°17'0 0.0
2017-Jun-28 15:00N 36°50' W 076°17'0 0.0
2017-Jun-28 14:00N 36°50' W 076°17'0 0.0
2017-Jun-28 13:30N 36°50' W 076°17'0 0.0
2017-Jun-28 13:00N 36°50' W 076°17'0 0.0
2017-Jun-28 12:30N 36°50' W 076°17'0 0.0
2017-Jun-28 12:00N 36°50' W 076°17'0 0.0
2017-Jun-28 11:30N 36°50' W 076°17'0 0.7
2017-Jun-28 11:00N 36°50' W 076°17'1 2.0
2017-Jun-28 10:29N 36°50' W 076°16'0 0.2
2017-Jun-28 10:00N 36°50' W 076°16'0 0.8
2017-Jun-28 09:30N 36°50' W 076°16'2 4.6
2017-Jun-28 09:00N 36°48' W 076°17'3 5.3
2017-Jun-28 08:30N 36°46' W 076°18'3 6.1
2017-Jun-28 08:00N 36°44' W 076°15'1 0.0
2017-Jun-27 10:12N 36°43' W 076°14'1 1.6
2017-Jun-27 09:45N 36°43' W 076°15'1 4.5
2017-Jun-27 09:30N 36°44' W 076°16'2 4.6
2017-Jun-27 09:00N 36°46' W 076°18'1 2.0
2017-Jun-27 08:30N 36°47' W 076°18'3 5.3
2017-Jun-27 08:00N 36°49' W 076°17'2 3.7
2017-Jun-27 07:30N 36°50' W 076°16'0 0.9
2017-Jun-27 07:00N 36°50' W 076°16'3 5.2
2017-Jun-27 06:30N 36°52' W 076°19'2 0.5
2017-Jun-27 02:33N 36°54' W 076°20'0 4.1
2017-Jun-27 02:30N 36°53' W 076°20'2 4.2
2017-Jun-27 02:00N 36°52' W 076°19'2 4.2
2017-Jun-27 01:30N 36°50' W 076°17'0 0.0
2017-Jun-27 01:00N 36°50' W 076°17'1 1.3
2017-Jun-27 00:30N 36°50' W 076°17'0 0.0
2017-Jun-27 00:00N 36°50' W 076°17'0 0.0
2017-Jun-26 23:30N 36°50' W 076°17'0 0.0
2017-Jun-26 23:00N 36°50' W 076°17'0 0.0
2017-Jun-26 22:30N 36°50' W 076°17'0 0.0
2017-Jun-26 22:00N 36°50' W 076°17'0 0.0
2017-Jun-26 21:30N 36°50' W 076°17'0 0.0
2017-Jun-26 21:00N 36°50' W 076°17'0 0.0
2017-Jun-26 20:30N 36°50' W 076°17'0 0.0
2017-Jun-26 20:00N 36°50' W 076°17'0 0.0
2017-Jun-26 19:29N 36°50' W 076°17'0 0.0
2017-Jun-26 19:00N 36°50' W 076°17'0 0.0
2017-Jun-26 18:29N 36°50' W 076°17'0 0.0
2017-Jun-26 18:00N 36°50' W 076°17'0 0.0
2017-Jun-26 17:28N 36°50' W 076°17'0 0.0
2017-Jun-26 17:00N 36°50' W 076°17'0 0.0
2017-Jun-26 16:30N 36°50' W 076°17'0 0.0
2017-Jun-26 16:00N 36°50' W 076°17'0 0.0
2017-Jun-26 15:30N 36°50' W 076°17'0 0.0
2017-Jun-26 15:00N 36°50' W 076°17'0 0.0
2017-Jun-26 14:30N 36°50' W 076°17'0 0.0
2017-Jun-26 13:30N 36°50' W 076°17'0 0.0
2017-Jun-26 12:59N 36°50' W 076°17'0 0.0
2017-Jun-26 12:30N 36°50' W 076°17'0 0.0
2017-Jun-26 12:00N 36°50' W 076°17'0 0.0
2017-Jun-26 11:30N 36°50' W 076°17'0 0.0
2017-Jun-26 10:45N 36°50' W 076°17'0 0.0
2017-Jun-26 10:30N 36°50' W 076°17'0 0.0
2017-Jun-26 10:00N 36°50' W 076°17'0 0.0
2017-Jun-26 09:30N 36°50' W 076°17'0 0.0
2017-Jun-26 09:00N 36°50' W 076°17'0 0.0
2017-Jun-26 07:01N 36°50' W 076°17'0 0.0
2017-Jun-26 06:49N 36°50' W 076°17'0 0.0
2017-Jun-26 06:25N 36°50' W 076°17'0 0.0
2017-Jun-26 06:00N 36°50' W 076°17'0 0.0
2017-Jun-26 05:30N 36°50' W 076°17'0 0.0
2017-Jun-26 05:00N 36°50' W 076°17'0 0.0
2017-Jun-26 04:30N 36°50' W 076°17'0 0.0
2017-Jun-26 04:00N 36°50' W 076°17'0 0.0
2017-Jun-26 03:30N 36°50' W 076°17'0 0.0
2017-Jun-26 03:00N 36°50' W 076°17'0 0.0
2017-Jun-26 02:30N 36°50' W 076°17'0 0.0
2017-Jun-26 02:00N 36°50' W 076°17'0 0.0
2017-Jun-26 01:30N 36°50' W 076°17'0 0.0
2017-Jun-26 01:00N 36°50' W 076°17'0 0.0
2017-Jun-26 00:30N 36°50' W 076°17'0 0.0
2017-Jun-26 00:00N 36°50' W 076°17'0 0.0
2017-Jun-25 23:30N 36°50' W 076°17'0 0.0
2017-Jun-25 22:42N 36°50' W 076°17'0 0.0
2017-Jun-25 22:30N 36°50' W 076°17'0 0.0
2017-Jun-25 22:00N 36°50' W 076°17'0 0.0
2017-Jun-25 21:30N 36°50' W 076°17'0 0.0
2017-Jun-25 21:00N 36°50' W 076°17'0 0.0
2017-Jun-25 20:30N 36°50' W 076°17'0 0.0
2017-Jun-25 20:00N 36°50' W 076°17'0 0.0
2017-Jun-25 19:30N 36°50' W 076°17'0 0.0
2017-Jun-25 18:52N 36°50' W 076°17'0 0.0
2017-Jun-25 18:30N 36°50' W 076°17'0 0.0
2017-Jun-25 17:53N 36°50' W 076°17'0 0.0
2017-Jun-25 17:30N 36°50' W 076°17'0 0.0
2017-Jun-25 17:00N 36°50' W 076°17'0 0.0
2017-Jun-25 16:30N 36°50' W 076°17'0 0.0
2017-Jun-25 16:00N 36°50' W 076°17'0 0.0
2017-Jun-25 15:30N 36°50' W 076°17'0 0.0
2017-Jun-25 15:00N 36°50' W 076°17'0 0.0
2017-Jun-25 14:00N 36°50' W 076°17'0 0.0
2017-Jun-25 13:30N 36°50' W 076°17'0 0.0
2017-Jun-25 13:00N 36°50' W 076°17'0 0.0
2017-Jun-25 12:30N 36°50' W 076°17'0 0.0
2017-Jun-25 12:00N 36°50' W 076°17'0 0.0
2017-Jun-25 11:30N 36°50' W 076°17'0 0.0
2017-Jun-25 11:00N 36°50' W 076°17'1 2.1
2017-Jun-25 10:30N 36°50' W 076°16'0 0.6
2017-Jun-25 09:57N 36°50' W 076°16'0 0.4
2017-Jun-25 09:30N 36°50' W 076°16'2 4.1
2017-Jun-25 09:00N 36°49' W 076°17'2 4.9
2017-Jun-25 08:30N 36°46' W 076°18'3 5.4
2017-Jun-25 07:59N 36°44' W 076°16'1 2.4
2017-Jun-25 07:23N 36°43' W 076°14'0 0.0
2017-Jun-23 10:05N 36°43' W 076°14'0 3.6
2017-Jun-23 10:00N 36°43' W 076°15'0 0.4
2017-Jun-23 09:12N 36°43' W 076°15'1 4.4
2017-Jun-23 09:00N 36°44' W 076°16'2 4.5
2017-Jun-23 08:30N 36°46' W 076°18'2 4.2
2017-Jun-23 08:00N 36°48' W 076°18'3 5.9
2017-Jun-23 07:30N 36°51' W 076°18'1 2.5
2017-Jun-23 07:00N 36°50' W 076°16'0 0.3
2017-Jun-23 06:30N 36°50' W 076°16'0 0.0
2017-Jun-23 06:00N 36°50' W 076°16'0 0.0
2017-Jun-23 05:30N 36°50' W 076°16'0 0.0
2017-Jun-23 05:01N 36°50' W 076°16'1 1.5
2017-Jun-23 04:30N 36°50' W 076°17'0 0.9
2017-Jun-23 04:00N 36°50' W 076°16'0 0.4
2017-Jun-23 03:22N 36°50' W 076°16'0 0.0
2017-Jun-23 02:55N 36°50' W 076°16'1 3.2
2017-Jun-23 02:30N 36°50' W 076°17'0 0.0
2017-Jun-23 02:00N 36°50' W 076°17'0 0.0
2017-Jun-23 01:30N 36°50' W 076°17'0 0.0
2017-Jun-23 01:00N 36°50' W 076°17'0 0.0
2017-Jun-23 00:30N 36°50' W 076°17'0 0.0
2017-Jun-23 00:00N 36°50' W 076°17'0 0.0
2017-Jun-22 23:30N 36°50' W 076°17'0 0.0
2017-Jun-22 23:00N 36°50' W 076°17'0 0.0
2017-Jun-22 22:30N 36°50' W 076°17'0 0.0
2017-Jun-22 22:00N 36°50' W 076°17'0 0.0
2017-Jun-22 21:30N 36°50' W 076°17'0 0.0
2017-Jun-22 21:00N 36°50' W 076°17'0 0.0
2017-Jun-22 20:30N 36°50' W 076°17'0 0.0
2017-Jun-22 20:00N 36°50' W 076°17'0 0.0
2017-Jun-22 19:30N 36°50' W 076°17'0 0.0
2017-Jun-22 19:00N 36°50' W 076°17'0 0.0
2017-Jun-22 18:30N 36°50' W 076°17'0 0.0
2017-Jun-22 18:00N 36°50' W 076°17'0 0.0
2017-Jun-22 17:30N 36°50' W 076°17'0 0.0
2017-Jun-22 17:00N 36°50' W 076°17'0 0.0
2017-Jun-22 16:30N 36°50' W 076°17'0 0.0
2017-Jun-22 16:00N 36°50' W 076°17'0 0.0
2017-Jun-22 15:30N 36°50' W 076°17'0 0.0
2017-Jun-22 15:00N 36°50' W 076°17'0 0.0
2017-Jun-22 14:30N 36°50' W 076°17'0 0.0
2017-Jun-22 13:30N 36°50' W 076°17'0 0.0
2017-Jun-22 13:00N 36°50' W 076°17'0 0.0
2017-Jun-22 12:30N 36°50' W 076°17'0 0.0
2017-Jun-22 12:00N 36°50' W 076°17'0 0.0
2017-Jun-22 11:30N 36°50' W 076°17'0 0.0
2017-Jun-22 11:00N 36°50' W 076°17'0 0.0
2017-Jun-22 10:30N 36°50' W 076°17'0 0.0
2017-Jun-22 10:00N 36°50' W 076°17'0 0.0
2017-Jun-22 09:30N 36°50' W 076°17'0 0.0
2017-Jun-22 09:00N 36°50' W 076°17'0 0.0
2017-Jun-22 08:30N 36°50' W 076°17'0 0.0
2017-Jun-22 08:00N 36°50' W 076°17'0 0.0
2017-Jun-22 07:30N 36°50' W 076°17'0 0.0
2017-Jun-22 07:00N 36°50' W 076°17'0 0.0
2017-Jun-22 06:30N 36°50' W 076°17'0 0.0
2017-Jun-22 06:00N 36°50' W 076°17'0 0.0
2017-Jun-22 05:30N 36°50' W 076°17'0 0.0
2017-Jun-22 05:00N 36°50' W 076°17'0 0.0
2017-Jun-22 04:30N 36°50' W 076°17'0 0.0
2017-Jun-22 04:00N 36°50' W 076°17'0 0.0
2017-Jun-22 03:30N 36°50' W 076°17'0 0.0
2017-Jun-22 03:00N 36°50' W 076°17'0 0.0
2017-Jun-22 02:30N 36°50' W 076°17'0 0.0
2017-Jun-22 02:00N 36°50' W 076°17'0 0.0
2017-Jun-22 01:30N 36°50' W 076°17'0 0.0
2017-Jun-22 01:00N 36°50' W 076°17'0 0.0
2017-Jun-22 00:30N 36°50' W 076°17'0 0.0
2017-Jun-22 00:00N 36°50' W 076°17'0 0.0
2017-Jun-21 23:30N 36°50' W 076°17'0 0.0
2017-Jun-21 23:00N 36°50' W 076°17'0 0.0
2017-Jun-21 22:30N 36°50' W 076°17'0 0.0
2017-Jun-21 22:00N 36°50' W 076°17'0 0.0
2017-Jun-21 21:30N 36°50' W 076°17'0 0.0
2017-Jun-21 21:00N 36°50' W 076°17'0 0.0
2017-Jun-21 20:30N 36°50' W 076°17'0 0.0
2017-Jun-21 20:00N 36°50' W 076°17'0 0.0
2017-Jun-21 19:30N 36°50' W 076°17'1 2.4
2017-Jun-21 19:00N 36°49' W 076°17'0 0.0
2017-Jun-21 18:30N 36°49' W 076°17'0 0.0
2017-Jun-21 18:00N 36°49' W 076°17'1 2.1
2017-Jun-21 17:31N 36°50' W 076°18'0 0.5
2017-Jun-21 17:00N 36°50' W 076°17'0 0.0
2017-Jun-21 16:30N 36°50' W 076°17'0 0.5
2017-Jun-21 16:01N 36°51' W 076°17'0 0.5
2017-Jun-21 15:30N 36°50' W 076°17'0 0.0
2017-Jun-21 14:55N 36°50' W 076°17'0 0.0
2017-Jun-21 14:25N 36°50' W 076°17'1 0.8
2017-Jun-21 13:30N 36°50' W 076°17'1 1.1
2017-Jun-21 12:57N 36°50' W 076°16'2 4.0
2017-Jun-21 12:30N 36°49' W 076°17'3 5.3
2017-Jun-21 12:00N 36°47' W 076°18'0 0.7
2017-Jun-21 11:30N 36°46' W 076°18'3 4.1
2017-Jun-21 10:52N 36°44' W 076°17'2 1.9
2017-Jun-21 09:57N 36°43' W 076°15'  
Track history (hours):
 
Tides and Currents Weather Stations Pressure Air Temp Water Temp Dewpoint Dewpoint Depression Visibility Wind Speed Wind Dir Waves Ship Positions

Fort Pike

Owner: Salisbury Towing Corporation, Chesapeak, VA. More information available from US FCC via Universal Licensing System and Coast Guard Vessel Documentation Center.

Last reported at 2017-Jun-29 02:00 UTC. Time now 2017-Jun-29 02:10 UTC.
Position N 36°50' W 076°17'.

Length 18 m; draft 2.5 m.

Type: Tug. MMSI: 366948310.

Date/timePositionNaut miles runAvg speedWind from/ knotsBaromVisibWave heightAir tempDewpointWater temp
2017-Jun-29 02:00N 36°50' W 076°17'0 0.0
2017-Jun-29 01:30N 36°50' W 076°17'0 0.0
2017-Jun-29 00:38N 36°50' W 076°17'0 0.0
2017-Jun-29 00:30N 36°50' W 076°17'0 0.0
2017-Jun-28 23:56N 36°50' W 076°17'0 0.0
2017-Jun-28 23:13N 36°50' W 076°17'0 0.0
2017-Jun-28 22:55N 36°50' W 076°17'0 0.0
2017-Jun-28 22:30N 36°50' W 076°17'0 0.0
2017-Jun-28 21:49N 36°50' W 076°17'0 0.0
2017-Jun-28 21:29N 36°50' W 076°17'0 0.0
2017-Jun-28 21:00N 36°50' W 076°17'0 0.0
2017-Jun-28 20:30N 36°50' W 076°17'0 0.0
2017-Jun-28 20:00N 36°50' W 076°17'0 0.0
2017-Jun-28 19:30N 36°50' W 076°17'0 0.0
2017-Jun-28 19:01N 36°50' W 076°17'0 0.0
2017-Jun-28 18:30N 36°50' W 076°17'0 0.0
2017-Jun-28 18:00N 36°50' W 076°17'0 0.0
2017-Jun-28 17:30N 36°50' W 076°17'0 0.0
2017-Jun-28 17:00N 36°50' W 076°17'0 0.0
2017-Jun-28 16:30N 36°50' W 076°17'0 0.0
2017-Jun-28 16:00N 36°50' W 076°17'0 0.0
2017-Jun-28 15:30N 36°50' W 076°17'0 0.0
2017-Jun-28 15:00N 36°50' W 076°17'0 0.0
2017-Jun-28 14:00N 36°50' W 076°17'0 0.0
2017-Jun-28 13:30N 36°50' W 076°17'0 0.0
2017-Jun-28 13:00N 36°50' W 076°17'0 0.0
2017-Jun-28 12:30N 36°50' W 076°17'0 0.0
2017-Jun-28 12:00N 36°50' W 076°17'0 0.0
2017-Jun-28 11:30N 36°50' W 076°17'0 0.7
2017-Jun-28 11:00N 36°50' W 076°17'1 2.0
2017-Jun-28 10:29N 36°50' W 076°16'0 0.2
2017-Jun-28 10:00N 36°50' W 076°16'0 0.8
2017-Jun-28 09:30N 36°50' W 076°16'2 4.6
2017-Jun-28 09:00N 36°48' W 076°17'3 5.3
2017-Jun-28 08:30N 36°46' W 076°18'3 6.1
2017-Jun-28 08:00N 36°44' W 076°15'1 0.0
2017-Jun-27 10:12N 36°43' W 076°14'1 1.6
2017-Jun-27 09:45N 36°43' W 076°15'1 4.5
2017-Jun-27 09:30N 36°44' W 076°16'2 4.6
2017-Jun-27 09:00N 36°46' W 076°18'1 2.0
2017-Jun-27 08:30N 36°47' W 076°18'3 5.3
2017-Jun-27 08:00N 36°49' W 076°17'2 3.7
2017-Jun-27 07:30N 36°50' W 076°16'0 0.9
2017-Jun-27 07:00N 36°50' W 076°16'3 5.2
2017-Jun-27 06:30N 36°52' W 076°19'2 0.5
2017-Jun-27 02:33N 36°54' W 076°20'0 4.1
2017-Jun-27 02:30N 36°53' W 076°20'2 4.2
2017-Jun-27 02:00N 36°52' W 076°19'2 4.2
2017-Jun-27 01:30N 36°50' W 076°17'0 0.0
2017-Jun-27 01:00N 36°50' W 076°17'1 1.3
2017-Jun-27 00:30N 36°50' W 076°17'0 0.0
2017-Jun-27 00:00N 36°50' W 076°17'0 0.0
2017-Jun-26 23:30N 36°50' W 076°17'0 0.0
2017-Jun-26 23:00N 36°50' W 076°17'0 0.0
2017-Jun-26 22:30N 36°50' W 076°17'0 0.0
2017-Jun-26 22:00N 36°50' W 076°17'0 0.0
2017-Jun-26 21:30N 36°50' W 076°17'0 0.0
2017-Jun-26 21:00N 36°50' W 076°17'0 0.0
2017-Jun-26 20:30N 36°50' W 076°17'0 0.0
2017-Jun-26 20:00N 36°50' W 076°17'0 0.0
2017-Jun-26 19:29N 36°50' W 076°17'0 0.0
2017-Jun-26 19:00N 36°50' W 076°17'0 0.0
2017-Jun-26 18:29N 36°50' W 076°17'0 0.0
2017-Jun-26 18:00N 36°50' W 076°17'0 0.0
2017-Jun-26 17:28N 36°50' W 076°17'0 0.0
2017-Jun-26 17:00N 36°50' W 076°17'0 0.0
2017-Jun-26 16:30N 36°50' W 076°17'0 0.0
2017-Jun-26 16:00N 36°50' W 076°17'0 0.0
2017-Jun-26 15:30N 36°50' W 076°17'0 0.0
2017-Jun-26 15:00N 36°50' W 076°17'0 0.0
2017-Jun-26 14:30N 36°50' W 076°17'0 0.0
2017-Jun-26 13:30N 36°50' W 076°17'0 0.0
2017-Jun-26 12:59N 36°50' W 076°17'0 0.0
2017-Jun-26 12:30N 36°50' W 076°17'0 0.0
2017-Jun-26 12:00N 36°50' W 076°17'0 0.0
2017-Jun-26 11:30N 36°50' W 076°17'0 0.0
2017-Jun-26 10:45N 36°50' W 076°17'0 0.0
2017-Jun-26 10:30N 36°50' W 076°17'0 0.0
2017-Jun-26 10:00N 36°50' W 076°17'0 0.0
2017-Jun-26 09:30N 36°50' W 076°17'0 0.0
2017-Jun-26 09:00N 36°50' W 076°17'0 0.0
2017-Jun-26 07:01N 36°50' W 076°17'0 0.0
2017-Jun-26 06:49N 36°50' W 076°17'0 0.0
2017-Jun-26 06:25N 36°50' W 076°17'0 0.0
2017-Jun-26 06:00N 36°50' W 076°17'0 0.0
2017-Jun-26 05:30N 36°50' W 076°17'0 0.0
2017-Jun-26 05:00N 36°50' W 076°17'0 0.0
2017-Jun-26 04:30N 36°50' W 076°17'0 0.0
2017-Jun-26 04:00N 36°50' W 076°17'0 0.0
2017-Jun-26 03:30N 36°50' W 076°17'0 0.0
2017-Jun-26 03:00N 36°50' W 076°17'0 0.0
2017-Jun-26 02:30N 36°50' W 076°17'0 0.0
2017-Jun-26 02:00N 36°50' W 076°17'0 0.0
2017-Jun-26 01:30N 36°50' W 076°17'0 0.0
2017-Jun-26 01:00N 36°50' W 076°17'0 0.0
2017-Jun-26 00:30N 36°50' W 076°17'0 0.0
2017-Jun-26 00:00N 36°50' W 076°17'0 0.0
2017-Jun-25 23:30N 36°50' W 076°17'0 0.0
2017-Jun-25 22:42N 36°50' W 076°17'0 0.0
2017-Jun-25 22:30N 36°50' W 076°17'0 0.0
2017-Jun-25 22:00N 36°50' W 076°17'0 0.0
2017-Jun-25 21:30N 36°50' W 076°17'0 0.0
2017-Jun-25 21:00N 36°50' W 076°17'0 0.0
2017-Jun-25 20:30N 36°50' W 076°17'0 0.0
2017-Jun-25 20:00N 36°50' W 076°17'0 0.0
2017-Jun-25 19:30N 36°50' W 076°17'0 0.0
2017-Jun-25 18:52N 36°50' W 076°17'0 0.0
2017-Jun-25 18:30N 36°50' W 076°17'0 0.0
2017-Jun-25 17:53N 36°50' W 076°17'0 0.0
2017-Jun-25 17:30N 36°50' W 076°17'0 0.0
2017-Jun-25 17:00N 36°50' W 076°17'0 0.0
2017-Jun-25 16:30N 36°50' W 076°17'0 0.0
2017-Jun-25 16:00N 36°50' W 076°17'0 0.0
2017-Jun-25 15:30N 36°50' W 076°17'0 0.0
2017-Jun-25 15:00N 36°50' W 076°17'0 0.0
2017-Jun-25 14:00N 36°50' W 076°17'0 0.0
2017-Jun-25 13:30N 36°50' W 076°17'0 0.0
2017-Jun-25 13:00N 36°50' W 076°17'0 0.0
2017-Jun-25 12:30N 36°50' W 076°17'0 0.0
2017-Jun-25 12:00N 36°50' W 076°17'0 0.0
2017-Jun-25 11:30N 36°50' W 076°17'0 0.0
2017-Jun-25 11:00N 36°50' W 076°17'1 2.1
2017-Jun-25 10:30N 36°50' W 076°16'0 0.6
2017-Jun-25 09:57N 36°50' W 076°16'0 0.4
2017-Jun-25 09:30N 36°50' W 076°16'2 4.1
2017-Jun-25 09:00N 36°49' W 076°17'2 4.9
2017-Jun-25 08:30N 36°46' W 076°18'3 5.4
2017-Jun-25 07:59N 36°44' W 076°16'1 2.4
2017-Jun-25 07:23N 36°43' W 076°14'0 0.0
2017-Jun-23 10:05N 36°43' W 076°14'0 3.6
2017-Jun-23 10:00N 36°43' W 076°15'0 0.4
2017-Jun-23 09:12N 36°43' W 076°15'1 4.4
2017-Jun-23 09:00N 36°44' W 076°16'2 4.5
2017-Jun-23 08:30N 36°46' W 076°18'2 4.2
2017-Jun-23 08:00N 36°48' W 076°18'3 5.9
2017-Jun-23 07:30N 36°51' W 076°18'1 2.5
2017-Jun-23 07:00N 36°50' W 076°16'0 0.3
2017-Jun-23 06:30N 36°50' W 076°16'0 0.0
2017-Jun-23 06:00N 36°50' W 076°16'0 0.0
2017-Jun-23 05:30N 36°50' W 076°16'0 0.0
2017-Jun-23 05:01N 36°50' W 076°16'1 1.5
2017-Jun-23 04:30N 36°50' W 076°17'0 0.9
2017-Jun-23 04:00N 36°50' W 076°16'0 0.4
2017-Jun-23 03:22N 36°50' W 076°16'0 0.0
2017-Jun-23 02:55N 36°50' W 076°16'1 3.2
2017-Jun-23 02:30N 36°50' W 076°17'0 0.0
2017-Jun-23 02:00N 36°50' W 076°17'0 0.0
2017-Jun-23 01:30N 36°50' W 076°17'0 0.0
2017-Jun-23 01:00N 36°50' W 076°17'0 0.0
2017-Jun-23 00:30N 36°50' W 076°17'0 0.0
2017-Jun-23 00:00N 36°50' W 076°17'0 0.0
2017-Jun-22 23:30N 36°50' W 076°17'0 0.0
2017-Jun-22 23:00N 36°50' W 076°17'0 0.0
2017-Jun-22 22:30N 36°50' W 076°17'0 0.0
2017-Jun-22 22:00N 36°50' W 076°17'0 0.0
2017-Jun-22 21:30N 36°50' W 076°17'0 0.0
2017-Jun-22 21:00N 36°50' W 076°17'0 0.0
2017-Jun-22 20:30N 36°50' W 076°17'0 0.0
2017-Jun-22 20:00N 36°50' W 076°17'0 0.0
2017-Jun-22 19:30N 36°50' W 076°17'0 0.0
2017-Jun-22 19:00N 36°50' W 076°17'0 0.0
2017-Jun-22 18:30N 36°50' W 076°17'0 0.0
2017-Jun-22 18:00N 36°50' W 076°17'0 0.0
2017-Jun-22 17:30N 36°50' W 076°17'0 0.0
2017-Jun-22 17:00N 36°50' W 076°17'0 0.0
2017-Jun-22 16:30N 36°50' W 076°17'0 0.0
2017-Jun-22 16:00N 36°50' W 076°17'0 0.0
2017-Jun-22 15:30N 36°50' W 076°17'0 0.0
2017-Jun-22 15:00N 36°50' W 076°17'0 0.0
2017-Jun-22 14:30N 36°50' W 076°17'0 0.0
2017-Jun-22 13:30N 36°50' W 076°17'0 0.0
2017-Jun-22 13:00N 36°50' W 076°17'0 0.0
2017-Jun-22 12:30N 36°50' W 076°17'0 0.0
2017-Jun-22 12:00N 36°50' W 076°17'0 0.0
2017-Jun-22 11:30N 36°50' W 076°17'0 0.0
2017-Jun-22 11:00N 36°50' W 076°17'0 0.0
2017-Jun-22 10:30N 36°50' W 076°17'0 0.0
2017-Jun-22 10:00N 36°50' W 076°17'0 0.0
2017-Jun-22 09:30N 36°50' W 076°17'0 0.0
2017-Jun-22 09:00N 36°50' W 076°17'0 0.0
2017-Jun-22 08:30N 36°50' W 076°17'0 0.0
2017-Jun-22 08:00N 36°50' W 076°17'0 0.0
2017-Jun-22 07:30N 36°50' W 076°17'0 0.0
2017-Jun-22 07:00N 36°50' W 076°17'0 0.0
2017-Jun-22 06:30N 36°50' W 076°17'0 0.0
2017-Jun-22 06:00N 36°50' W 076°17'0 0.0
2017-Jun-22 05:30N 36°50' W 076°17'0 0.0
2017-Jun-22 05:00N 36°50' W 076°17'0 0.0
2017-Jun-22 04:30N 36°50' W 076°17'0 0.0
2017-Jun-22 04:00N 36°50' W 076°17'0 0.0
2017-Jun-22 03:30N 36°50' W 076°17'0 0.0
2017-Jun-22 03:00N 36°50' W 076°17'0 0.0
2017-Jun-22 02:30N 36°50' W 076°17'0 0.0
2017-Jun-22 02:00N 36°50' W 076°17'0 0.0
2017-Jun-22 01:30N 36°50' W 076°17'0 0.0
2017-Jun-22 01:00N 36°50' W 076°17'0 0.0
2017-Jun-22 00:30N 36°50' W 076°17'0 0.0
2017-Jun-22 00:00N 36°50' W 076°17'0 0.0
2017-Jun-21 23:30N 36°50' W 076°17'0 0.0
2017-Jun-21 23:00N 36°50' W 076°17'0 0.0
2017-Jun-21 22:30N 36°50' W 076°17'0 0.0
2017-Jun-21 22:00N 36°50' W 076°17'0 0.0
2017-Jun-21 21:30N 36°50' W 076°17'0 0.0
2017-Jun-21 21:00N 36°50' W 076°17'0 0.0
2017-Jun-21 20:30N 36°50' W 076°17'0 0.0
2017-Jun-21 20:00N 36°50' W 076°17'0 0.0
2017-Jun-21 19:30N 36°50' W 076°17'1 2.4
2017-Jun-21 19:00N 36°49' W 076°17'0 0.0
2017-Jun-21 18:30N 36°49' W 076°17'0 0.0
2017-Jun-21 18:00N 36°49' W 076°17'1 2.1
2017-Jun-21 17:31N 36°50' W 076°18'0 0.5
2017-Jun-21 17:00N 36°50' W 076°17'0 0.0
2017-Jun-21 16:30N 36°50' W 076°17'0 0.5
2017-Jun-21 16:01N 36°51' W 076°17'0 0.5
2017-Jun-21 15:30N 36°50' W 076°17'0 0.0
2017-Jun-21 14:55N 36°50' W 076°17'0 0.0
2017-Jun-21 14:25N 36°50' W 076°17'1 0.8
2017-Jun-21 13:30N 36°50' W 076°17'1 1.1
2017-Jun-21 12:57N 36°50' W 076°16'2 4.0
2017-Jun-21 12:30N 36°49' W 076°17'3 5.3
2017-Jun-21 12:00N 36°47' W 076°18'0 0.7
2017-Jun-21 11:30N 36°46' W 076°18'3 4.1
2017-Jun-21 10:52N 36°44' W 076°17'2 1.9
2017-Jun-21 09:57N 36°43' W 076°15'  

Dump ship's entire track history